Time;durP1;ratioP1;P1;durP2;ratioP2;P2;SDS_P1;SDS_P2;PMS_P1;PMS_P2;Temp;Humidity;BMP_temperature;BMP_pressure;BME280_temperature;BME280_humidity;BME280_pressure;Samples;Min_cycle;Max_cycle;Signal;HPM_P1;HPM_P2
2023/01/11 00:01:11;;;;;;;;;7.00;6.00;;;;;4.18;100.00;99599.03;6313988;20;2750264;-63
2023/01/11 00:03:39;;;;;;;;;7.25;7.25;;;;;4.13;100.00;99595.72;6331342;20;1813900;-64
2023/01/11 00:06:10;;;;;;;;;8.00;6.00;;;;;4.03;100.00;99596.97;6330465;20;1823312;-63
2023/01/11 00:08:38;;;;;;;;;10.00;7.00;;;;;4.15;100.00;99590.31;6317644;20;2754463;-64
2023/01/11 00:11:14;;;;;;;;;11.75;8.00;;;;;4.12;100.00;99590.44;6294387;20;1805506;-64
2023/01/11 00:13:44;;;;;;;;;8.50;8.50;;;;;4.09;100.00;99599.41;6312171;20;2738861;-64
2023/01/11 00:16:13;;;;;;;;;6.00;6.00;;;;;4.15;100.00;99604.47;6328315;20;1815459;-64
2023/01/11 00:18:42;;;;;;;;;4.75;4.75;;;;;4.08;100.00;99604.75;6331755;20;1817049;-64
2023/01/11 00:21:10;;;;;;;;;7.00;7.00;;;;;3.99;100.00;99603.31;6315668;20;2737808;-64
2023/01/11 00:23:40;;;;;;;;;8.00;6.50;;;;;4.14;100.00;99610.72;6350870;20;2485726;-64
2023/01/11 00:26:12;;;;;;;;;9.00;6.75;;;;;4.19;100.00;99610.56;6298045;20;1815920;-64
2023/01/11 00:28:40;;;;;;;;;6.00;6.00;;;;;4.27;100.00;99618.25;6313765;20;2734694;-64
2023/01/11 00:31:09;;;;;;;;;8.00;8.00;;;;;4.15;100.00;99617.75;6332197;20;1817052;-64
2023/01/11 00:33:37;;;;;;;;;11.50;8.00;;;;;4.18;100.00;99620.31;6312835;20;2769035;-63
2023/01/11 00:36:07;;;;;;;;;14.20;11.60;;;;;4.10;100.00;99632.13;6305547;20;2788851;-64
2023/01/11 00:38:43;;;;;;;;;13.80;11.60;;;;;4.19;100.00;99631.81;6304665;20;2781532;-63
2023/01/11 00:49:38;;;;;;;;;22.00;17.00;;;;;3.73;100.00;99652.88;6281677;20;2834890;-64
2023/01/11 00:52:08;;;;;;;;;12.33;11.67;;;;;3.88;100.00;99655.94;6278840;20;3515858;-64
2023/01/11 00:54:41;;;;;;;;;12.50;11.00;;;;;3.94;100.00;99661.03;6307095;20;2778509;-64
2023/01/11 00:57:09;;;;;;;;;9.00;9.00;;;;;3.84;100.00;99667.59;6280580;20;2748312;-64
2023/01/11 00:59:40;;;;;;;;;10.00;8.00;;;;;3.70;100.00;99671.56;6280821;20;2767181;-65
2023/01/11 01:02:10;;;;;;;;;13.50;8.00;;;;;3.68;100.00;99673.41;6280821;20;2772207;-64
2023/01/11 01:04:40;;;;;;;;;16.33;12.67;;;;;3.88;100.00;99674.53;6276763;20;3530558;-66
2023/01/11 01:07:08;;;;;;;;;12.50;10.00;;;;;3.86;100.00;99687.00;6310460;20;2771142;-65
2023/01/11 01:09:37;;;;;;;;;9.33;9.33;;;;;3.93;100.00;99672.59;6299783;20;1819072;-65
2023/01/11 01:12:07;;;;;;;;;12.00;8.00;;;;;4.03;100.00;99681.97;6308232;20;2769160;-65
2023/01/11 01:14:36;;;;;;;;;29.00;18.00;;;;;3.80;100.00;99682.75;6278584;20;2863944;-65
2023/01/11 01:17:07;;;;;;;;;26.00;21.50;;;;;3.83;100.00;99668.50;6280715;20;2836718;-65
2023/01/11 01:19:38;;;;;;;;;22.33;22.00;;;;;3.85;100.00;99664.03;6278368;20;3565366;-65
2023/01/11 01:22:06;;;;;;;;;20.00;14.00;;;;;3.77;100.00;99664.28;6317657;20;2811718;-65
2023/01/11 01:24:36;;;;;;;;;16.00;10.80;;;;;3.77;100.00;99663.44;6298332;20;2783704;-64
2023/01/11 01:27:05;;;;;;;;;6.50;4.75;;;;;3.82;100.00;99658.78;6299366;20;1818079;-64
2023/01/11 01:29:32;;;;;;;;;6.50;6.50;;;;;3.78;100.00;99657.19;6311303;20;2736834;-64
2023/01/11 01:32:00;;;;;;;;;11.50;8.00;;;;;3.79;100.00;99658.91;6311452;20;2763988;-64
2023/01/11 01:34:28;;;;;;;;;8.00;8.00;;;;;3.83;100.00;99657.91;6278231;20;2735714;-65
2023/01/11 01:36:56;;;;;;;;;6.50;6.50;;;;;3.91;100.00;99659.34;6328418;20;1820746;-64
2023/01/11 01:39:24;;;;;;;;;8.50;7.00;;;;;3.83;100.00;99665.84;6310277;20;2740902;-65
2023/01/11 01:41:52;;;;;;;;;8.00;8.00;;;;;3.68;100.00;99676.06;6315623;20;2741984;-65
2023/01/11 01:44:52;;;;;;;;;11.60;6.60;;;;;3.75;100.00;99679.41;6333243;20;2765035;-64
2023/01/11 01:47:42;;;;;;;;;9.00;6.00;;;;;3.79;100.00;99685.47;6287926;20;2749313;-65
2023/01/11 01:50:18;;;;;;;;;14.00;8.00;;;;;3.85;100.00;99690.59;6310392;20;2779571;-65
2023/01/11 01:52:54;;;;;;;;;7.75;7.75;;;;;3.85;100.00;99695.91;6303304;20;1807693;-63
2023/01/11 01:55:32;;;;;;;;;11.00;8.00;;;;;3.77;100.00;99682.00;6314040;20;2769096;-65
2023/01/11 01:58:04;;;;;;;;;11.00;11.00;;;;;3.72;100.00;99684.81;6287039;20;2762223;-65
2023/01/11 02:00:32;;;;;;;;;12.00;10.00;;;;;3.76;100.00;99690.88;6283926;20;2754437;-65
2023/01/11 02:03:02;;;;;;;;;13.00;8.00;;;;;3.83;100.00;99692.41;6283892;20;2771212;-64
2023/01/11 02:05:31;;;;;;;;;13.00;9.60;;;;;3.77;100.00;99687.31;6304798;20;2773222;-66
2023/01/11 02:08:07;;;;;;;;;12.00;9.00;;;;;3.81;100.00;99679.19;6283135;20;2751368;-65
2023/01/11 02:10:36;;;;;;;;;12.00;9.00;;;;;3.64;100.00;99677.09;6283119;20;2768186;-64
2023/01/11 02:13:11;;;;;;;;;8.00;8.00;;;;;3.63;100.00;99679.78;6284257;20;2737790;-65
2023/01/11 02:15:39;;;;;;;;;8.00;8.00;;;;;3.65;100.00;99676.16;6328484;20;1813903;-65
2023/01/11 02:18:12;;;;;;;;;7.00;7.00;;;;;3.78;100.00;99673.97;6318234;20;2744029;-66
2023/01/11 02:21:17;;;;;;;;;11.00;11.00;;;;;3.68;100.00;99673.41;6315986;20;2767496;-66
2023/01/11 02:24:45;;;;;;;;;13.00;9.00;;;;;3.84;100.00;99683.53;6284819;20;2761117;-65
2023/01/11 02:28:14;;;;;;;;;7.00;7.00;;;;;3.77;100.00;99696.16;6282103;20;2732591;-66
2023/01/11 02:31:33;;;;;;;;;12.33;10.67;;;;;3.66;100.00;99696.50;6324153;20;1810663;-64
2023/01/11 02:34:25;;;;;;;;;12.00;12.00;;;;;3.62;100.00;99702.81;6284357;20;2796115;-62
2023/01/11 02:37:12;;;;;;;;;13.50;11.00;;;;;3.54;100.00;99691.59;6281977;20;2794129;-63
2023/01/11 02:40:37;;;;;;;;;19.00;11.50;;;;;3.53;100.00;99695.19;6278272;20;2806535;-65
2023/01/11 02:46:53;;;;;;;;;12.33;9.33;;;;;3.61;100.00;99703.75;6304637;20;1811069;-64
2023/01/11 02:49:46;;;;;;;;;11.00;11.00;;;;;3.56;100.00;99705.69;6352905;20;1812885;-64
2023/01/11 02:53:06;;;;;;;;;10.75;9.50;;;;;3.45;100.00;99698.09;6302019;20;1816989;-63
2023/01/11 02:55:43;;;;;;;;;9.00;8.00;;;;;3.63;100.00;99703.69;6305307;20;2748236;-64
2023/01/11 02:58:12;;;;;;;;;11.00;8.00;;;;;3.67;100.00;99702.69;6280881;20;2772221;-63
2023/01/11 03:00:41;;;;;;;;;7.50;4.00;;;;;3.69;100.00;99701.72;6281100;20;2751357;-63
2023/01/11 03:03:29;;;;;;;;;14.00;11.50;;;;;3.47;100.00;99698.88;6315173;20;2799646;-63
2023/01/11 03:06:13;;;;;;;;;9.00;7.75;;;;;3.65;100.00;99700.06;6295734;20;1819182;-64
2023/01/11 03:09:34;;;;;;;;;9.50;9.17;;;;;3.68;100.00;99688.47;6348780;20;1808239;-63
2023/01/11 03:13:10;;;;;;;;;12.00;8.50;;;;;3.78;100.00;99686.41;6279380;20;2754668;-64
2023/01/11 03:16:21;;;;;;;;;12.50;11.00;;;;;3.62;100.00;99670.97;6274226;20;2773224;-63
2023/01/11 03:19:29;;;;;;;;;17.00;10.57;;;;;3.71;100.00;99665.38;6322649;20;1808656;-63
2023/01/11 03:22:19;;;;;;;;;6.00;6.00;;;;;3.68;100.00;99662.78;6313484;20;2752355;-63
2023/01/11 03:25:23;;;;;;;;;11.00;8.00;;;;;3.67;100.00;99652.25;6312111;20;2767065;-64
2023/01/11 03:28:24;;;;;;;;;11.00;8.00;;;;;3.56;100.00;99646.44;6278786;20;2745146;-63
2023/01/11 03:31:20;;;;;;;;;10.00;10.00;;;;;3.47;100.00;99647.59;6276964;20;2765965;-63
2023/01/11 03:34:10;;;;;;;;;15.00;11.00;;;;;3.54;100.00;99643.81;6279676;20;2784685;-63
2023/01/11 03:37:37;;;;;;;;;7.00;7.00;;;;;3.53;100.00;99647.41;6281375;20;3451291;-63
2023/01/11 03:40:17;;;;;;;;;11.50;9.00;;;;;3.58;100.00;99650.78;6311382;20;2771099;-63
2023/01/11 03:46:04;;;;;;;;;11.00;7.00;;;;;3.64;100.00;99685.06;6309048;20;2748205;-63
2023/01/11 03:48:57;;;;;;;;;7.50;7.50;;;;;3.56;100.00;99684.47;6313923;20;2734704;-63
2023/01/11 03:51:29;;;;;;;;;14.00;12.00;;;;;3.53;100.00;99684.56;6315147;20;2796057;-63
2023/01/11 03:54:06;;;;;;;;;15.00;10.50;;;;;3.64;100.00;99671.78;6281862;20;2775698;-63
2023/01/11 03:57:15;;;;;;;;;15.43;11.14;;;;;3.61;100.00;99666.59;6320632;20;1808644;-63
2023/01/11 03:59:44;;;;;;;;;10.00;8.00;;;;;3.70;100.00;99687.50;6314024;20;2761881;-63
2023/01/11 04:02:32;;;;;;;;;12.00;7.00;;;;;3.74;100.00;99696.25;6299536;20;1808859;-63
2023/01/11 04:05:01;;;;;;;;;7.00;7.00;;;;;3.68;100.00;99705.28;6313193;20;2748217;-63
2023/01/11 04:07:30;;;;;;;;;7.00;6.50;;;;;3.68;100.00;99715.88;6300135;20;1823324;-63
2023/01/11 04:09:58;;;;;;;;;11.75;9.75;;;;;3.82;100.00;99725.19;6330861;20;1828545;-63
2023/01/11 04:12:27;;;;;;;;;11.00;11.00;;;;;3.59;100.00;99728.63;6318196;20;2649331;-63
2023/01/11 04:14:55;;;;;;;;;7.00;7.00;;;;;3.67;100.00;99739.84;6329264;20;1819347;-63
2023/01/11 04:17:23;;;;;;;;;14.00;9.00;;;;;3.57;100.00;99738.41;6310224;20;2763939;-63
2023/01/11 04:19:51;;;;;;;;;9.00;7.00;;;;;3.56;100.00;99736.69;6284092;20;2729467;-63
2023/01/11 04:22:19;;;;;;;;;6.00;6.00;;;;;3.69;100.00;99738.03;6333837;20;1817580;-63
2023/01/11 04:24:47;;;;;;;;;16.50;6.50;;;;;3.56;100.00;99742.84;6308117;20;2785712;-63
2023/01/11 04:27:15;;;;;;;;;7.00;7.00;;;;;3.58;100.00;99751.66;6282444;20;2748333;-63
2023/01/11 04:29:45;;;;;;;;;7.67;7.17;;;;;3.51;100.00;99739.47;6324071;20;1798164;-63
2023/01/11 04:32:14;;;;;;;;;8.25;7.00;;;;;3.52;100.00;99751.81;6301836;20;1812897;-63
2023/01/11 04:34:45;;;;;;;;;9.50;7.83;;;;;3.56;100.00;99756.13;6354058;20;1801396;-63
2023/01/11 04:37:13;;;;;;;;;10.75;7.00;;;;;3.49;100.00;99760.75;6290622;20;1818103;-63
2023/01/11 04:39:41;;;;;;;;;16.00;12.50;;;;;3.30;100.00;99752.50;6307029;20;2798356;-63
2023/01/11 04:42:19;;;;;;;;;9.50;8.00;;;;;3.29;100.00;99749.88;6281475;20;2752451;-63
2023/01/11 04:44:51;;;;;;;;;13.20;10.00;;;;;3.37;100.00;99757.59;6304253;20;2781627;-63
2023/01/11 04:47:23;;;;;;;;;11.20;11.20;;;;;3.36;100.00;99756.75;6305503;20;2775280;-64
2023/01/11 04:49:52;;;;;;;;;14.80;11.60;;;;;3.41;100.00;99764.56;6301227;20;2796290;-64
2023/01/11 04:52:20;;;;;;;;;11.50;11.00;;;;;3.44;100.00;99765.34;6282444;20;2773285;-64
2023/01/11 04:54:51;;;;;;;;;7.00;7.00;;;;;3.13;100.00;99765.41;6304685;20;1823252;-64
2023/01/11 04:57:19;;;;;;;;;15.00;12.00;;;;;3.35;100.00;99762.97;6305917;20;2791948;-62
2023/01/11 04:59:49;;;;;;;;;9.60;7.80;;;;;3.36;100.00;99755.88;6305629;20;2745095;-64
2023/01/11 05:02:17;;;;;;;;;8.00;8.00;;;;;3.29;100.00;99765.81;6310315;20;2759030;-64
2023/01/11 05:04:44;;;;;;;;;8.50;7.50;;;;;3.40;100.00;99762.84;6288430;20;2737754;-65
2023/01/11 05:07:12;;;;;;;;;11.00;8.00;;;;;3.30;100.00;99755.16;6313727;20;2756651;-64
2023/01/11 05:09:40;;;;;;;;;11.50;10.00;;;;;3.20;100.00;99756.34;6279499;20;2777504;-64
2023/01/11 05:12:08;;;;;;;;;9.00;7.50;;;;;3.30;100.00;99751.63;6277766;20;2750319;-65
2023/01/11 05:14:38;;;;;;;;;6.83;6.83;;;;;3.29;100.00;99753.44;6321071;20;1804568;-64
2023/01/11 05:17:06;;;;;;;;;13.00;12.00;;;;;3.38;100.00;99760.22;6279082;20;2786739;-64
2023/01/11 05:19:34;;;;;;;;;14.00;12.00;;;;;3.26;100.00;99752.63;6281263;20;2781536;-64
2023/01/11 05:22:01;;;;;;;;;13.50;11.00;;;;;3.27;100.00;99735.81;6276820;20;2789944;-64
2023/01/11 05:24:29;;;;;;;;;9.50;9.50;;;;;3.29;100.00;99737.50;6282390;20;2761836;-64
2023/01/11 05:26:59;;;;;;;;;11.60;11.00;;;;;3.42;100.00;99722.06;6309351;20;2789905;-64
2023/01/11 05:29:27;;;;;;;;;13.00;10.00;;;;;3.39;100.00;99723.94;6286659;20;2784673;-64
2023/01/11 05:31:55;;;;;;;;;11.00;11.00;;;;;3.43;100.00;99721.16;6286274;20;2773156;-64
2023/01/11 05:34:24;;;;;;;;;14.00;10.50;;;;;3.43;100.00;99721.16;6304852;20;1811909;-64
2023/01/11 05:36:53;;;;;;;;;12.80;8.20;;;;;3.33;100.00;99709.06;6339510;20;2769131;-63
2023/01/11 05:39:22;;;;;;;;;12.00;8.00;;;;;3.54;100.00;99723.44;6283308;20;2764906;-64
2023/01/11 05:41:52;;;;;;;;;9.60;9.60;;;;;3.46;100.00;99720.19;6312314;20;2749286;-63
2023/01/11 05:47:08;;;;;;;;;18.50;17.00;;;;;3.39;100.00;99724.78;6285119;20;2816971;-63
2023/01/11 05:49:36;;;;;;;;;17.67;14.33;;;;;3.44;100.00;99728.19;6283230;20;3552464;-63
2023/01/11 05:52:06;;;;;;;;;16.00;10.60;;;;;3.54;100.00;99720.78;6339481;20;2782756;-63
2023/01/11 05:54:34;;;;;;;;;11.00;8.00;;;;;3.66;100.00;99722.16;6281043;20;2764928;-62
2023/01/11 05:57:01;;;;;;;;;12.00;7.00;;;;;3.61;100.00;99730.31;6278613;20;2756562;-62
2023/01/11 05:59:30;;;;;;;;;7.50;7.50;;;;;3.60;100.00;99727.69;6337134;20;1819067;-63
2023/01/11 06:01:58;;;;;;;;;12.00;9.00;;;;;3.67;100.00;99730.09;6316685;20;2756525;-62
2023/01/11 06:04:28;;;;;;;;;10.40;10.40;;;;;3.75;100.00;99732.50;6305944;20;2784643;-62
2023/01/11 06:06:56;;;;;;;;;21.67;14.00;;;;;3.80;100.00;99735.88;6282380;20;2805799;-61
2023/01/11 06:09:24;;;;;;;;;22.00;20.00;;;;;3.78;100.00;99736.84;6313620;20;2485678;-63
2023/01/11 06:11:52;;;;;;;;;15.00;11.50;;;;;3.67;100.00;99746.03;6281667;20;2797278;-62
2023/01/11 06:14:20;;;;;;;;;11.00;10.00;;;;;3.73;100.00;99737.00;6286328;20;2775425;-62
2023/01/11 06:16:47;;;;;;;;;9.00;7.67;;;;;3.66;100.00;99748.72;6288855;20;3453421;-62
2023/01/11 06:19:16;;;;;;;;;7.25;7.25;;;;;3.67;100.00;99751.34;6333580;20;1818013;-62
2023/01/11 06:21:44;;;;;;;;;14.00;9.00;;;;;3.61;100.00;99761.31;6316150;20;2775286;-62
2023/01/11 06:24:12;;;;;;;;;18.00;11.50;;;;;3.80;100.00;99782.81;6285357;20;2793035;-62
2023/01/11 06:26:39;;;;;;;;;17.00;13.00;;;;;3.84;100.00;99779.97;6285864;20;2798185;-62
2023/01/11 06:29:08;;;;;;;;;23.33;13.33;;;;;4.01;99.58;99782.09;6279936;20;3555543;-62
2023/01/11 06:31:36;;;;;;;;;16.00;14.50;;;;;4.00;99.96;99788.31;6314706;20;2795077;-62
2023/01/11 06:34:03;;;;;;;;;40.00;35.00;;;;;3.87;100.00;99792.28;6289064;20;2500353;-62
2023/01/11 06:36:32;;;;;;;;;43.50;37.50;;;;;3.90;100.00;99782.47;6282865;20;2862796;-62
2023/01/11 06:39:02;;;;;;;;;29.00;24.00;;;;;4.03;100.00;99780.28;6286943;20;2844168;-62
2023/01/11 06:41:31;;;;;;;;;30.00;29.00;;;;;4.11;100.00;99786.19;6286046;20;2850380;-62
2023/01/11 06:43:59;;;;;;;;;24.00;19.00;;;;;4.15;99.97;99787.81;6282841;20;2500283;-62
2023/01/11 06:46:27;;;;;;;;;31.50;29.00;;;;;4.21;99.59;99793.84;6284171;20;2851340;-62
2023/01/11 06:48:57;;;;;;;;;29.50;27.50;;;;;4.32;99.27;99797.88;6282495;20;2845079;-62
2023/01/11 06:51:25;;;;;;;;;15.67;13.33;;;;;4.26;98.81;99798.06;6283515;20;2796069;-62
2023/01/11 06:53:54;;;;;;;;;19.67;13.00;;;;;4.29;98.85;99810.38;6314848;20;3541978;-62
2023/01/11 06:56:22;;;;;;;;;19.33;18.33;;;;;4.26;99.93;99810.50;6312368;20;3548227;-62
2023/01/11 06:58:52;;;;;;;;;38.67;30.67;;;;;4.43;100.00;99805.50;6313112;20;2861787;-62
2023/01/11 07:01:20;;;;;;;;;22.00;18.50;;;;;4.26;99.31;99805.19;6312457;20;2500297;-62
2023/01/11 07:03:47;;;;;;;;;18.50;18.00;;;;;4.38;99.48;99807.44;6284065;20;2833628;-62
2023/01/11 07:06:15;;;;;;;;;22.00;18.50;;;;;4.56;98.63;99806.81;6283562;20;2500934;-62
2023/01/11 07:08:43;;;;;;;;;26.50;23.50;;;;;4.67;98.17;99803.75;6281756;20;2496264;-62
2023/01/11 07:11:12;;;;;;;;;39.33;30.33;;;;;4.64;98.04;99792.38;6282230;20;2867410;-62
2023/01/11 07:13:42;;;;;;;;;42.00;33.33;;;;;4.45;98.49;99769.09;6313620;20;3623296;-62
2023/01/11 07:16:11;;;;;;;;;48.00;39.00;;;;;4.54;99.06;99787.38;6318050;20;3627338;-62
2023/01/11 07:18:38;;;;;;;;;24.00;20.00;;;;;4.56;98.65;99804.13;6280574;20;2500370;-62
2023/01/11 07:21:07;;;;;;;;;24.00;17.33;;;;;4.41;98.34;99788.72;6283851;20;3561828;-62
2023/01/11 07:23:35;;;;;;;;;23.00;19.00;;;;;4.50;98.14;99790.19;6287630;20;2833579;-62
2023/01/11 07:26:04;;;;;;;;;18.33;16.67;;;;;4.57;99.21;99792.56;6284916;20;3542050;-62
2023/01/11 07:28:33;;;;;;;;;20.67;16.00;;;;;4.78;97.57;99798.06;6314583;20;3553546;-63
2023/01/11 07:31:01;;;;;;;;;19.00;18.00;;;;;4.72;97.99;99806.25;6278681;20;2823281;-62
2023/01/11 07:33:29;;;;;;;;;13.50;13.50;;;;;4.69;97.42;99819.69;6275891;20;2795142;-62
2023/01/11 07:35:59;;;;;;;;;16.50;12.00;;;;;4.69;97.17;99825.00;6285988;20;2796098;-62
2023/01/11 07:38:28;;;;;;;;;26.50;17.00;;;;;4.67;97.81;99825.03;6284083;20;2844055;-62
2023/01/11 07:40:57;;;;;;;;;20.33;18.00;;;;;4.70;97.17;99826.72;6280970;20;3546511;-62
2023/01/11 07:43:25;;;;;;;;;19.00;15.00;;;;;4.67;97.44;99819.72;6322632;20;1809701;-62
2023/01/11 07:45:54;;;;;;;;;17.67;17.00;;;;;4.61;97.52;99841.22;6313718;20;3550481;-62
2023/01/11 07:48:25;;;;;;;;;14.67;14.00;;;;;4.67;97.95;99850.75;6313855;20;3548226;-62
2023/01/11 07:50:54;;;;;;;;;20.00;15.00;;;;;4.63;97.67;99847.31;6276190;20;3549329;-62
2023/01/11 07:53:25;;;;;;;;;17.67;16.33;;;;;4.67;98.44;99841.00;6313411;20;3557675;-62
2023/01/11 07:55:57;;;;;;;;;23.00;15.00;;;;;4.89;97.73;99846.41;6313130;20;3559681;-62
2023/01/11 07:58:25;;;;;;;;;13.50;13.50;;;;;4.59;97.07;99833.28;6310474;20;2797118;-62
2023/01/11 08:00:53;;;;;;;;;17.00;15.00;;;;;4.69;97.76;99843.63;6281608;20;2823366;-62
2023/01/11 08:03:20;;;;;;;;;23.00;19.50;;;;;4.78;97.83;99843.28;6278264;20;2500384;-62
2023/01/11 08:05:53;;;;;;;;;38.50;29.50;;;;;4.83;98.12;99851.97;6281567;20;2867118;-62
2023/01/11 08:08:20;;;;;;;;;24.00;16.00;;;;;4.91;97.69;99857.88;6279083;20;2496335;-62
2023/01/11 08:14:37;;;;;;;;;22.50;16.00;;;;;4.91;97.32;99868.50;6275155;20;2830522;-62
2023/01/11 08:16:26;;;;;;;;;17.00;13.33;;;;;4.80;97.78;99857.38;6284492;20;3536760;-61
2023/01/11 08:18:53;;;;;;;;;19.50;19.50;;;;;4.77;98.08;99857.50;6307064;20;2496211;-62
2023/01/11 08:21:21;;;;;;;;;26.00;23.00;;;;;4.87;97.74;99863.34;6278835;20;2500325;-62
2023/01/11 08:23:57;;;;;;;;;23.33;21.33;;;;;4.78;96.87;99856.56;6278853;20;3562984;-62
2023/01/11 08:26:26;;;;;;;;;19.00;19.00;;;;;4.68;97.97;99858.66;6280177;20;3561725;-61
2023/01/11 08:28:56;;;;;;;;;24.00;22.50;;;;;4.89;97.45;99856.19;6312158;20;2843976;-62
2023/01/11 08:31:24;;;;;;;;;25.00;20.50;;;;;5.00;96.77;99849.56;6283650;20;2833659;-62
2023/01/11 08:33:52;;;;;;;;;22.00;19.00;;;;;5.09;96.50;99863.47;6281788;20;2496266;-62
2023/01/11 08:36:23;;;;;;;;;21.67;21.00;;;;;5.04;97.04;99861.81;6284404;20;3568103;-61
2023/01/11 08:38:57;;;;;;;;;28.00;19.50;;;;;5.09;96.44;99868.78;6274476;20;2500287;-62
2023/01/11 08:41:25;;;;;;;;;22.00;18.33;;;;;5.22;96.53;99870.94;6281910;20;3553360;-62
2023/01/11 08:43:54;;;;;;;;;26.00;24.00;;;;;5.22;96.42;99875.41;6281131;20;2500767;-62
2023/01/11 08:46:21;;;;;;;;;17.00;16.00;;;;;5.22;96.23;99880.72;6282779;20;2831644;-62
2023/01/11 08:48:51;;;;;;;;;21.00;19.50;;;;;5.18;96.36;99868.44;6284443;20;2500263;-64
2023/01/11 08:51:54;;;;;;;;;34.00;26.50;;;;;5.27;96.03;99887.63;6273755;20;2500257;-65
2023/01/11 08:54:24;;;;;;;;;40.33;27.33;;;;;5.33;96.28;99877.66;6280424;20;3608622;-65
2023/01/11 08:56:55;;;;;;;;;46.00;35.00;;;;;5.31;95.94;99877.72;6309155;20;2869181;-63
2023/01/11 08:59:23;;;;;;;;;30.00;26.00;;;;;5.20;95.71;99872.78;6304026;20;2839051;-64
2023/01/11 09:01:51;;;;;;;;;28.00;25.50;;;;;5.40;95.78;99880.03;6278697;20;2500350;-64
2023/01/11 09:04:19;;;;;;;;;25.50;21.00;;;;;5.29;96.52;99882.22;6279071;20;2500372;-62
2023/01/11 09:06:53;;;;;;;;;31.00;28.50;;;;;5.28;96.31;99880.50;6283649;20;2844072;-62
2023/01/11 09:09:22;;;;;;;;;58.67;44.33;;;;;5.37;96.75;99879.28;6279491;20;2873195;-62
2023/01/11 09:11:55;;;;;;;;;47.00;34.00;;;;;5.32;96.10;99871.47;6311115;20;3610781;-64
2023/01/11 09:14:28;;;;;;;;;29.50;26.00;;;;;5.49;95.97;99874.34;6279920;20;2843112;-64
2023/01/11 09:16:57;;;;;;;;;31.00;27.00;;;;;5.61;95.04;99877.47;6279873;20;2852464;-65
2023/01/11 09:19:26;;;;;;;;;28.00;27.00;;;;;5.60;95.26;99873.09;6274113;20;2838785;-65
2023/01/11 09:21:59;;;;;;;;;31.50;25.50;;;;;5.72;94.72;99869.97;6278925;20;2847166;-65
2023/01/11 09:24:29;;;;;;;;;40.33;27.00;;;;;5.82;94.47;99874.00;6281791;20;2867047;-65
2023/01/11 09:26:59;;;;;;;;;31.00;25.00;;;;;5.82;93.75;99874.00;6308872;20;2739943;-65
2023/01/11 09:29:27;;;;;;;;;26.00;24.50;;;;;5.73;93.93;99871.69;6306329;20;2496135;-64
2023/01/11 09:31:56;;;;;;;;;29.50;22.00;;;;;5.71;94.05;99874.44;6281709;20;2860719;-64
2023/01/11 09:34:26;;;;;;;;;37.00;26.50;;;;;5.97;93.75;99882.34;6280771;20;2850281;-63
2023/01/11 09:36:56;;;;;;;;;25.50;21.50;;;;;5.91;94.22;99884.28;6279232;20;2496139;-63
2023/01/11 09:39:26;;;;;;;;;23.50;22.00;;;;;5.79;93.80;99879.44;6278720;20;2500297;-64
2023/01/11 09:42:22;;;;;;;;;24.00;21.00;;;;;6.13;93.33;99883.47;6278161;20;2500264;-63
2023/01/11 09:44:59;;;;;;;;;26.50;24.00;;;;;5.80;93.72;99875.84;6276903;20;2856491;-64
2023/01/11 09:47:45;;;;;;;;;28.00;25.50;;;;;6.00;93.81;99868.91;6274767;20;2852389;-64
2023/01/11 09:50:32;;;;;;;;;31.00;25.00;;;;;6.18;93.27;99868.16;6275312;20;2858043;-64
2023/01/11 09:53:08;;;;;;;;;29.00;26.00;;;;;6.31;92.48;99869.38;6278748;20;2840894;-67
2023/01/11 09:55:46;;;;;;;;;30.00;28.00;;;;;6.53;92.54;99868.50;6278521;20;2850402;-65
2023/01/11 09:58:53;;;;;;;;;24.00;22.00;;;;;6.53;92.03;99871.16;6309262;20;2837829;-64
2023/01/11 10:01:37;;;;;;;;;39.33;31.33;;;;;6.65;91.78;99867.97;6277892;20;2870184;-63
2023/01/11 10:05:01;;;;;;;;;22.00;22.00;;;;;6.77;91.27;99863.94;6308645;20;2500216;-63
2023/01/11 10:07:52;;;;;;;;;18.67;18.67;;;;;7.03;90.26;99862.81;6279570;20;3552475;-63
2023/01/11 10:11:04;;;;;;;;;47.33;36.00;;;;;7.46;88.74;99855.50;6280525;20;3645042;-63
2023/01/11 10:14:25;;;;;;;;;31.00;26.50;;;;;7.87;87.45;99853.59;6313921;20;2847191;-64
2023/01/11 10:18:04;;;;;;;;;52.67;42.00;;;;;8.18;86.73;99862.78;6284708;20;2870193;-62
2023/01/11 10:21:27;;;;;;;;;46.00;37.50;;;;;7.80;87.05;99862.81;6311868;20;2864893;-62
2023/01/11 10:24:20;;;;;;;;;54.67;38.67;;;;;7.85;87.13;99855.44;6281585;20;3614847;-63
2023/01/11 10:26:56;;;;;;;;;15.00;14.00;;;;;8.08;85.85;99853.47;6316532;20;3518088;-63
2023/01/11 10:39:26;;;;;;;;;4.50;4.00;;;;;8.60;80.61;99850.06;6285697;20;2756570;-63
2023/01/11 10:42:09;;;;;;;;;10.00;8.50;;;;;8.59;80.90;99859.03;6284830;20;2758666;-63
2023/01/11 10:45:36;;;;;;;;;14.67;13.00;;;;;8.74;80.13;99861.78;6283884;20;3526321;-63
2023/01/11 10:48:32;;;;;;;;;20.33;18.00;;;;;8.77;79.85;99860.78;6313289;20;2831599;-62
2023/01/11 10:51:26;;;;;;;;;6.00;6.00;;;;;8.73;79.47;99856.50;6320568;20;2747241;-62
2023/01/11 10:54:25;;;;;;;;;25.00;25.00;;;;;9.26;79.36;99866.22;6279341;20;2836799;-63
2023/01/11 10:58:10;;;;;;;;;13.00;12.00;;;;;9.30;79.33;99869.63;6277747;20;2792114;-62
2023/01/11 11:01:25;;;;;;;;;9.00;5.50;;;;;8.92;79.41;99867.97;6314551;20;2754476;-63
2023/01/11 11:04:10;;;;;;;;;4.00;4.00;;;;;8.64;79.53;99857.00;6285275;20;2752465;-63
2023/01/11 11:06:58;;;;;;;;;5.50;4.00;;;;;9.13;78.64;99857.09;6286174;20;2756497;-62
2023/01/11 11:10:02;;;;;;;;;1.00;1.00;;;;;9.31;77.85;99848.09;6304989;20;1803505;-62
2023/01/11 11:12:38;;;;;;;;;4.00;4.00;;;;;9.16;78.46;99848.91;6314996;20;2752339;-62
2023/01/11 11:16:13;;;;;;;;;5.00;5.00;;;;;9.12;77.21;99847.34;6284285;20;2746123;-62
2023/01/11 11:18:42;;;;;;;;;10.50;7.00;;;;;9.28;77.69;99848.25;6282305;20;2769098;-62
2023/01/11 11:21:27;;;;;;;;;20.50;17.00;;;;;9.37;78.14;99839.75;6279752;20;2823315;-62
2023/01/11 11:24:08;;;;;;;;;7.00;5.00;;;;;8.99;77.23;99842.63;6283477;20;2752393;-62
2023/01/11 11:26:43;;;;;;;;;18.00;14.00;;;;;9.01;79.00;99840.75;6281353;20;2807560;-62
2023/01/11 11:29:22;;;;;;;;;6.00;5.50;;;;;9.20;78.04;99839.75;6281146;20;2750319;-62
2023/01/11 11:31:50;;;;;;;;;12.50;9.00;;;;;9.29;78.65;99839.25;6285308;20;2764935;-62
2023/01/11 11:34:21;;;;;;;;;10.50;8.50;;;;;9.54;78.55;99843.31;6283151;20;2763991;-62
2023/01/11 11:36:52;;;;;;;;;11.00;7.00;;;;;9.31;77.22;99826.66;6284065;20;2743125;-63
2023/01/11 11:39:31;;;;;;;;;2.00;2.00;;;;;8.84;78.94;99830.03;6304032;20;1816962;-62
2023/01/11 11:42:16;;;;;;;;;13.00;10.67;;;;;8.97;80.12;99831.13;6312202;20;2789904;-62
2023/01/11 11:44:44;;;;;;;;;12.00;10.00;;;;;9.00;80.40;99832.78;6313606;20;2786768;-62
2023/01/11 11:47:16;;;;;;;;;13.00;10.00;;;;;8.83;79.33;99830.13;6288277;20;2788849;-67
2023/01/11 11:49:46;;;;;;;;;11.40;10.40;;;;;9.28;80.51;99831.31;6308029;20;2804459;-62
2023/01/11 11:52:17;;;;;;;;;25.00;21.00;;;;;9.47;80.06;99825.81;6284709;20;2841954;-62
2023/01/11 11:54:55;;;;;;;;;36.67;34.33;;;;;9.70;78.88;99836.13;6282878;20;3616966;-61
2023/01/11 11:57:31;;;;;;;;;38.33;32.33;;;;;9.27;78.78;99842.97;6307784;20;2853614;-53
2023/01/11 12:00:22;;;;;;;;;17.00;9.00;;;;;9.15;79.05;99847.19;6309944;20;3512855;-60
2023/01/11 12:03:09;;;;;;;;;21.00;14.33;;;;;9.02;81.00;99837.09;6313003;20;3553388;-60
2023/01/11 12:05:54;;;;;;;;;47.67;34.33;;;;;9.34;79.54;99842.56;6310743;20;3624222;-62
2023/01/11 12:08:24;;;;;;;;;40.00;35.67;;;;;9.38;79.85;99838.78;6313099;20;3602385;-63
2023/01/11 12:11:02;;;;;;;;;13.67;11.00;;;;;9.27;78.34;99846.53;6278688;20;3507555;-62
2023/01/11 12:13:37;;;;;;;;;12.33;10.00;;;;;9.31;79.24;99842.72;6307433;20;2783583;-62
2023/01/11 12:16:20;;;;;;;;;12.00;7.00;;;;;9.17;78.92;99845.28;6316476;20;2753593;-63
2023/01/11 12:18:48;;;;;;;;;11.50;10.00;;;;;8.89;79.49;99837.84;6277429;20;2777403;-63
2023/01/11 12:21:25;;;;;;;;;64.00;44.00;;;;;9.20;80.28;99829.91;6278380;20;3635689;-62
2023/01/11 12:24:18;;;;;;;;;11.00;9.00;;;;;9.10;79.90;99838.53;6308805;20;2754588;-63